sensor_id;sensor_type;location;lat;lon;timestamp;pressure;altitude;pressure_sealevel;temperature;humidity
51439;BME280;38816;51.142;-0.974;2023-02-23T00:01:39;99975.53;;;2.92;100.00
51439;BME280;38816;51.142;-0.974;2023-02-23T00:04:05;99978.88;;;2.91;100.00
51439;BME280;38816;51.142;-0.974;2023-02-23T00:06:32;99975.28;;;2.86;100.00
51439;BME280;38816;51.142;-0.974;2023-02-23T00:08:59;99977.00;;;2.87;100.00
51439;BME280;38816;51.142;-0.974;2023-02-23T00:11:26;99967.31;;;2.78;100.00
51439;BME280;38816;51.142;-0.974;2023-02-23T00:13:52;99986.34;;;2.88;100.00
51439;BME280;38816;51.142;-0.974;2023-02-23T00:16:20;99986.63;;;2.94;100.00
51439;BME280;38816;51.142;-0.974;2023-02-23T00:18:50;99978.88;;;2.91;100.00
51439;BME280;38816;51.142;-0.974;2023-02-23T00:21:23;99985.97;;;2.98;100.00
51439;BME280;38816;51.142;-0.974;2023-02-23T00:23:51;99988.22;;;3.11;100.00
51439;BME280;38816;51.142;-0.974;2023-02-23T00:26:18;99991.16;;;3.20;100.00
51439;BME280;38816;51.142;-0.974;2023-02-23T00:28:46;99989.28;;;3.37;100.00
51439;BME280;38816;51.142;-0.974;2023-02-23T00:31:11;99988.41;;;3.37;100.00
51439;BME280;38816;51.142;-0.974;2023-02-23T00:33:37;99982.22;;;3.51;100.00
51439;BME280;38816;51.142;-0.974;2023-02-23T00:36:12;99986.63;;;3.55;100.00
51439;BME280;38816;51.142;-0.974;2023-02-23T00:38:39;99990.09;;;3.57;100.00
51439;BME280;38816;51.142;-0.974;2023-02-23T00:41:09;99993.81;;;3.65;100.00
51439;BME280;38816;51.142;-0.974;2023-02-23T00:43:36;100004.38;;;3.74;100.00
51439;BME280;38816;51.142;-0.974;2023-02-23T00:46:03;99995.75;;;3.71;100.00
51439;BME280;38816;51.142;-0.974;2023-02-23T00:48:33;100007.50;;;3.69;100.00
51439;BME280;38816;51.142;-0.974;2023-02-23T00:51:04;100008.44;;;3.71;100.00
51439;BME280;38816;51.142;-0.974;2023-02-23T00:53:30;100006.09;;;3.75;100.00
51439;BME280;38816;51.142;-0.974;2023-02-23T00:55:55;100001.75;;;3.73;100.00
51439;BME280;38816;51.142;-0.974;2023-02-23T00:58:22;100001.56;;;3.68;100.00
51439;BME280;38816;51.142;-0.974;2023-02-23T01:00:48;99979.75;;;3.52;100.00
51439;BME280;38816;51.142;-0.974;2023-02-23T01:03:13;99995.38;;;3.62;100.00
51439;BME280;38816;51.142;-0.974;2023-02-23T01:05:38;99997.66;;;3.55;100.00
51439;BME280;38816;51.142;-0.974;2023-02-23T01:08:04;99997.22;;;3.45;100.00
51439;BME280;38816;51.142;-0.974;2023-02-23T01:10:33;100003.25;;;3.47;100.00
51439;BME280;38816;51.142;-0.974;2023-02-23T01:13:16;100009.19;;;3.47;100.00
51439;BME280;38816;51.142;-0.974;2023-02-23T01:15:43;100002.50;;;3.49;100.00
51439;BME280;38816;51.142;-0.974;2023-02-23T01:18:10;100001.88;;;3.55;100.00
51439;BME280;38816;51.142;-0.974;2023-02-23T01:20:36;100002.91;;;3.60;100.00
51439;BME280;38816;51.142;-0.974;2023-02-23T01:23:02;100000.38;;;3.60;100.00
51439;BME280;38816;51.142;-0.974;2023-02-23T01:25:28;100015.03;;;3.66;100.00
51439;BME280;38816;51.142;-0.974;2023-02-23T01:27:54;100010.94;;;3.69;100.00
51439;BME280;38816;51.142;-0.974;2023-02-23T01:30:20;100005.59;;;3.63;100.00
51439;BME280;38816;51.142;-0.974;2023-02-23T01:32:45;100017.81;;;3.72;100.00
51439;BME280;38816;51.142;-0.974;2023-02-23T01:35:11;100000.63;;;3.66;100.00
51439;BME280;38816;51.142;-0.974;2023-02-23T01:37:39;100017.75;;;3.70;100.00
51439;BME280;38816;51.142;-0.974;2023-02-23T01:40:06;100014.16;;;3.65;100.00
51439;BME280;38816;51.142;-0.974;2023-02-23T01:42:54;100008.13;;;3.63;100.00
51439;BME280;38816;51.142;-0.974;2023-02-23T01:45:26;100018.44;;;3.66;100.00
51439;BME280;38816;51.142;-0.974;2023-02-23T01:47:55;100018.34;;;3.65;100.00
51439;BME280;38816;51.142;-0.974;2023-02-23T01:50:23;100007.09;;;3.58;100.00
51439;BME280;38816;51.142;-0.974;2023-02-23T01:52:51;100016.69;;;3.65;100.00
51439;BME280;38816;51.142;-0.974;2023-02-23T01:55:18;99999.47;;;3.58;100.00
51439;BME280;38816;51.142;-0.974;2023-02-23T01:58:06;100019.78;;;3.58;100.00
51439;BME280;38816;51.142;-0.974;2023-02-23T02:00:36;100004.22;;;3.50;100.00
51439;BME280;38816;51.142;-0.974;2023-02-23T02:03:06;99990.84;;;3.34;100.00
51439;BME280;38816;51.142;-0.974;2023-02-23T02:05:35;100018.09;;;3.38;100.00
51439;BME280;38816;51.142;-0.974;2023-02-23T02:08:02;100000.19;;;3.35;100.00
51439;BME280;38816;51.142;-0.974;2023-02-23T02:10:30;99997.91;;;3.41;100.00
51439;BME280;38816;51.142;-0.974;2023-02-23T02:13:10;100013.66;;;3.53;100.00
51439;BME280;38816;51.142;-0.974;2023-02-23T02:15:51;100010.81;;;3.66;100.00
51439;BME280;38816;51.142;-0.974;2023-02-23T02:24:16;100016.31;;;3.77;100.00
51439;BME280;38816;51.142;-0.974;2023-02-23T02:26:58;100018.84;;;3.77;100.00
51439;BME280;38816;51.142;-0.974;2023-02-23T02:40:53;100001.22;;;3.81;100.00
51439;BME280;38816;51.142;-0.974;2023-02-23T02:46:23;99999.22;;;3.95;100.00
51439;BME280;38816;51.142;-0.974;2023-02-23T02:49:08;100006.00;;;3.95;100.00
51439;BME280;38816;51.142;-0.974;2023-02-23T02:51:50;100013.94;;;4.02;100.00
51439;BME280;38816;51.142;-0.974;2023-02-23T02:54:32;100016.44;;;4.01;100.00
51439;BME280;38816;51.142;-0.974;2023-02-23T02:57:02;100020.78;;;4.05;100.00
51439;BME280;38816;51.142;-0.974;2023-02-23T02:59:29;100020.34;;;3.93;100.00
51439;BME280;38816;51.142;-0.974;2023-02-23T03:02:19;100023.94;;;3.98;100.00
51439;BME280;38816;51.142;-0.974;2023-02-23T03:05:15;100016.81;;;3.89;100.00
51439;BME280;38816;51.142;-0.974;2023-02-23T03:11:01;100024.25;;;3.85;100.00
51439;BME280;38816;51.142;-0.974;2023-02-23T03:13:57;100011.41;;;3.81;100.00
51439;BME280;38816;51.142;-0.974;2023-02-23T03:16:55;100005.13;;;3.73;100.00
51439;BME280;38816;51.142;-0.974;2023-02-23T03:19:51;100012.75;;;3.73;100.00
51439;BME280;38816;51.142;-0.974;2023-02-23T03:22:49;100010.94;;;3.69;100.00
51439;BME280;38816;51.142;-0.974;2023-02-23T03:25:46;100006.78;;;3.71;100.00
51439;BME280;38816;51.142;-0.974;2023-02-23T03:28:35;100019.84;;;3.80;100.00
51439;BME280;38816;51.142;-0.974;2023-02-23T03:37:49;100031.09;;;3.87;100.00
51439;BME280;38816;51.142;-0.974;2023-02-23T03:40:38;100024.97;;;3.82;100.00
51439;BME280;38816;51.142;-0.974;2023-02-23T03:43:26;100015.84;;;3.87;100.00
51439;BME280;38816;51.142;-0.974;2023-02-23T03:46:13;100009.81;;;3.84;100.00
51439;BME280;38816;51.142;-0.974;2023-02-23T03:49:02;100010.50;;;3.79;100.00
51439;BME280;38816;51.142;-0.974;2023-02-23T03:51:52;100019.91;;;3.82;100.00
51439;BME280;38816;51.142;-0.974;2023-02-23T03:54:44;100021.56;;;3.81;100.00
51439;BME280;38816;51.142;-0.974;2023-02-23T03:57:33;100018.97;;;3.80;100.00
51439;BME280;38816;51.142;-0.974;2023-02-23T04:00:24;100026.56;;;3.78;100.00
51439;BME280;38816;51.142;-0.974;2023-02-23T04:03:11;100016.03;;;3.69;100.00
51439;BME280;38816;51.142;-0.974;2023-02-23T04:05:57;100017.56;;;3.66;100.00
51439;BME280;38816;51.142;-0.974;2023-02-23T04:08:42;100026.56;;;3.78;100.00
51439;BME280;38816;51.142;-0.974;2023-02-23T04:11:30;100022.38;;;3.80;100.00
51439;BME280;38816;51.142;-0.974;2023-02-23T04:14:23;100031.81;;;3.83;100.00
51439;BME280;38816;51.142;-0.974;2023-02-23T04:16:51;100034.41;;;3.85;100.00
51439;BME280;38816;51.142;-0.974;2023-02-23T04:19:17;100032.44;;;3.77;100.00
51439;BME280;38816;51.142;-0.974;2023-02-23T04:21:42;100029.28;;;3.83;100.00
51439;BME280;38816;51.142;-0.974;2023-02-23T04:24:08;100026.84;;;3.86;100.00
51439;BME280;38816;51.142;-0.974;2023-02-23T04:26:34;100033.72;;;3.89;100.00
51439;BME280;38816;51.142;-0.974;2023-02-23T04:28:59;100033.88;;;3.92;100.00
51439;BME280;38816;51.142;-0.974;2023-02-23T04:31:25;100040.56;;;3.90;100.00
51439;BME280;38816;51.142;-0.974;2023-02-23T04:33:50;100041.41;;;3.90;100.00
51439;BME280;38816;51.142;-0.974;2023-02-23T04:36:16;100055.19;;;3.95;100.00
51439;BME280;38816;51.142;-0.974;2023-02-23T04:38:41;100065.44;;;3.97;100.00
51439;BME280;38816;51.142;-0.974;2023-02-23T04:41:07;100066.94;;;3.92;100.00
51439;BME280;38816;51.142;-0.974;2023-02-23T04:43:32;100067.34;;;4.02;100.00
51439;BME280;38816;51.142;-0.974;2023-02-23T04:45:57;100071.56;;;4.02;100.00
51439;BME280;38816;51.142;-0.974;2023-02-23T04:48:23;100056.22;;;4.00;100.00
51439;BME280;38816;51.142;-0.974;2023-02-23T04:50:53;100075.84;;;4.03;100.00
51439;BME280;38816;51.142;-0.974;2023-02-23T04:53:18;100071.66;;;4.05;100.00
51439;BME280;38816;51.142;-0.974;2023-02-23T04:55:43;100076.88;;;4.08;100.00
51439;BME280;38816;51.142;-0.974;2023-02-23T04:58:09;100083.69;;;4.09;100.00
51439;BME280;38816;51.142;-0.974;2023-02-23T05:03:50;100071.47;;;4.00;100.00
51439;BME280;38816;51.142;-0.974;2023-02-23T05:06:16;100079.94;;;3.99;100.00
51439;BME280;38816;51.142;-0.974;2023-02-23T05:08:42;100094.75;;;4.10;100.00
51439;BME280;38816;51.142;-0.974;2023-02-23T05:11:08;100093.13;;;4.12;100.00
51439;BME280;38816;51.142;-0.974;2023-02-23T05:13:34;100084.47;;;4.06;100.00
51439;BME280;38816;51.142;-0.974;2023-02-23T05:15:59;100096.38;;;4.07;100.00
51439;BME280;38816;51.142;-0.974;2023-02-23T05:18:25;100097.59;;;4.17;100.00
51439;BME280;38816;51.142;-0.974;2023-02-23T05:20:52;100102.56;;;4.14;100.00
51439;BME280;38816;51.142;-0.974;2023-02-23T05:23:18;100111.13;;;4.16;100.00
51439;BME280;38816;51.142;-0.974;2023-02-23T05:25:44;100113.63;;;4.15;100.00
51439;BME280;38816;51.142;-0.974;2023-02-23T05:28:10;100101.94;;;4.20;100.00
51439;BME280;38816;51.142;-0.974;2023-02-23T05:30:35;100110.31;;;4.17;100.00
51439;BME280;38816;51.142;-0.974;2023-02-23T05:33:01;100109.44;;;4.17;100.00
51439;BME280;38816;51.142;-0.974;2023-02-23T05:35:26;100124.47;;;4.11;100.00
51439;BME280;38816;51.142;-0.974;2023-02-23T05:37:55;100141.41;;;4.10;100.00
51439;BME280;38816;51.142;-0.974;2023-02-23T05:40:20;100133.22;;;4.17;100.00
51439;BME280;38816;51.142;-0.974;2023-02-23T05:42:45;100131.63;;;4.19;100.00
51439;BME280;38816;51.142;-0.974;2023-02-23T05:45:11;100141.03;;;4.22;100.00
51439;BME280;38816;51.142;-0.974;2023-02-23T05:47:36;100153.69;;;4.20;100.00
51439;BME280;38816;51.142;-0.974;2023-02-23T05:50:08;100134.16;;;4.19;100.00
51439;BME280;38816;51.142;-0.974;2023-02-23T05:52:39;100137.75;;;4.24;100.00
51439;BME280;38816;51.142;-0.974;2023-02-23T05:55:07;100146.13;;;4.22;100.00
51439;BME280;38816;51.142;-0.974;2023-02-23T05:57:32;100125.34;;;4.11;100.00
51439;BME280;38816;51.142;-0.974;2023-02-23T05:59:58;100138.78;;;4.09;100.00
51439;BME280;38816;51.142;-0.974;2023-02-23T06:02:23;100137.44;;;4.17;100.00
51439;BME280;38816;51.142;-0.974;2023-02-23T06:04:48;100130.44;;;4.11;100.00
51439;BME280;38816;51.142;-0.974;2023-02-23T06:07:14;100146.59;;;4.13;100.00
51439;BME280;38816;51.142;-0.974;2023-02-23T06:09:40;100130.34;;;4.10;100.00
51439;BME280;38816;51.142;-0.974;2023-02-23T06:12:05;100138.25;;;4.16;100.00
51439;BME280;38816;51.142;-0.974;2023-02-23T06:14:30;100142.16;;;4.07;100.00
51439;BME280;38816;51.142;-0.974;2023-02-23T06:16:57;100156.91;;;4.16;100.00
51439;BME280;38816;51.142;-0.974;2023-02-23T06:19:24;100145.44;;;4.05;100.00
51439;BME280;38816;51.142;-0.974;2023-02-23T06:21:49;100162.88;;;4.17;100.00
51439;BME280;38816;51.142;-0.974;2023-02-23T06:24:14;100153.94;;;4.05;100.00
51439;BME280;38816;51.142;-0.974;2023-02-23T06:26:40;100160.88;;;4.10;100.00
51439;BME280;38816;51.142;-0.974;2023-02-23T06:29:05;100155.59;;;4.05;100.00
51439;BME280;38816;51.142;-0.974;2023-02-23T06:31:31;100155.50;;;4.02;100.00
51439;BME280;38816;51.142;-0.974;2023-02-23T06:33:57;100159.97;;;4.07;100.00
51439;BME280;38816;51.142;-0.974;2023-02-23T06:36:22;100165.78;;;4.05;100.00
51439;BME280;38816;51.142;-0.974;2023-02-23T06:38:47;100156.41;;;4.04;100.00
51439;BME280;38816;51.142;-0.974;2023-02-23T06:41:13;100167.63;;;4.09;100.00
51439;BME280;38816;51.142;-0.974;2023-02-23T06:43:38;100174.69;;;4.15;100.00
51439;BME280;38816;51.142;-0.974;2023-02-23T06:46:04;100171.81;;;4.07;100.00
51439;BME280;38816;51.142;-0.974;2023-02-23T06:48:30;100169.59;;;4.15;100.00
51439;BME280;38816;51.142;-0.974;2023-02-23T06:50:58;100161.69;;;4.09;100.00
51439;BME280;38816;51.142;-0.974;2023-02-23T06:53:24;100173.06;;;4.17;100.00
51439;BME280;38816;51.142;-0.974;2023-02-23T06:55:49;100177.13;;;4.13;100.00
51439;BME280;38816;51.142;-0.974;2023-02-23T06:58:14;100148.72;;;4.02;100.00
51439;BME280;38816;51.142;-0.974;2023-02-23T07:00:40;100172.88;;;4.12;100.00
51439;BME280;38816;51.142;-0.974;2023-02-23T07:03:08;100159.13;;;4.09;100.00
51439;BME280;38816;51.142;-0.974;2023-02-23T07:05:33;100171.94;;;4.10;100.00
51439;BME280;38816;51.142;-0.974;2023-02-23T07:07:59;100160.00;;;4.09;100.00
51439;BME280;38816;51.142;-0.974;2023-02-23T07:10:24;100161.00;;;4.13;100.00
51439;BME280;38816;51.142;-0.974;2023-02-23T07:12:52;100166.84;;;4.10;100.00
51439;BME280;38816;51.142;-0.974;2023-02-23T07:15:17;100172.91;;;4.14;100.00
51439;BME280;38816;51.142;-0.974;2023-02-23T07:17:44;100190.00;;;4.16;100.00
51439;BME280;38816;51.142;-0.974;2023-02-23T07:20:13;100201.09;;;4.18;100.00
51439;BME280;38816;51.142;-0.974;2023-02-23T07:22:39;100204.44;;;4.17;100.00
51439;BME280;38816;51.142;-0.974;2023-02-23T07:25:05;100204.81;;;4.26;100.00
51439;BME280;38816;51.142;-0.974;2023-02-23T07:27:30;100192.78;;;4.22;100.00
51439;BME280;38816;51.142;-0.974;2023-02-23T07:29:55;100215.13;;;4.29;100.00
51439;BME280;38816;51.142;-0.974;2023-02-23T07:32:21;100203.72;;;4.20;100.00
51439;BME280;38816;51.142;-0.974;2023-02-23T07:34:46;100214.28;;;4.29;100.00
51439;BME280;38816;51.142;-0.974;2023-02-23T07:37:12;100229.63;;;4.32;100.00
51439;BME280;38816;51.142;-0.974;2023-02-23T07:39:37;100209.09;;;4.27;100.00
51439;BME280;38816;51.142;-0.974;2023-02-23T07:42:03;100205.78;;;4.28;100.00
51439;BME280;38816;51.142;-0.974;2023-02-23T07:44:28;100224.31;;;4.47;100.00
51439;BME280;38816;51.142;-0.974;2023-02-23T07:46:53;100220.78;;;4.43;100.00
51439;BME280;38816;51.142;-0.974;2023-02-23T07:49:19;100213.66;;;4.35;100.00
51439;BME280;38816;51.142;-0.974;2023-02-23T07:51:44;100233.69;;;4.48;100.00
51439;BME280;38816;51.142;-0.974;2023-02-23T07:54:09;100223.19;;;4.61;100.00
51439;BME280;38816;51.142;-0.974;2023-02-23T07:56:35;100218.78;;;4.57;100.00
51439;BME280;38816;51.142;-0.974;2023-02-23T07:59:00;100217.59;;;4.49;100.00
51439;BME280;38816;51.142;-0.974;2023-02-23T08:01:26;100226.44;;;4.57;100.00
51439;BME280;38816;51.142;-0.974;2023-02-23T08:03:51;100229.22;;;4.63;100.00
51439;BME280;38816;51.142;-0.974;2023-02-23T08:06:17;100223.69;;;4.73;100.00
51439;BME280;38816;51.142;-0.974;2023-02-23T08:08:43;100236.47;;;4.75;100.00
51439;BME280;38816;51.142;-0.974;2023-02-23T08:11:09;100230.34;;;4.70;100.00
51439;BME280;38816;51.142;-0.974;2023-02-23T08:13:35;100230.34;;;4.70;100.00
51439;BME280;38816;51.142;-0.974;2023-02-23T08:16:01;100231.19;;;4.70;100.00
51439;BME280;38816;51.142;-0.974;2023-02-23T08:18:27;100237.56;;;4.81;100.00
51439;BME280;38816;51.142;-0.974;2023-02-23T08:21:03;100241.41;;;4.93;100.00
51439;BME280;38816;51.142;-0.974;2023-02-23T08:23:29;100233.66;;;4.90;100.00
51439;BME280;38816;51.142;-0.974;2023-02-23T08:25:55;100243.97;;;4.93;100.00
51439;BME280;38816;51.142;-0.974;2023-02-23T08:28:20;100261.25;;;5.00;100.00
51439;BME280;38816;51.142;-0.974;2023-02-23T08:30:46;100249.47;;;5.03;100.00
51439;BME280;38816;51.142;-0.974;2023-02-23T08:33:12;100243.19;;;4.95;100.00
51439;BME280;38816;51.142;-0.974;2023-02-23T08:35:37;100262.84;;;4.98;100.00
51439;BME280;38816;51.142;-0.974;2023-02-23T08:38:02;100254.00;;;5.11;100.00
51439;BME280;38816;51.142;-0.974;2023-02-23T08:40:28;100254.19;;;5.15;100.00
51439;BME280;38816;51.142;-0.974;2023-02-23T08:42:54;100261.25;;;5.22;100.00
51439;BME280;38816;51.142;-0.974;2023-02-23T08:45:19;100261.00;;;5.16;100.00
51439;BME280;38816;51.142;-0.974;2023-02-23T08:47:44;100260.66;;;5.07;100.00
51439;BME280;38816;51.142;-0.974;2023-02-23T08:50:11;100274.59;;;5.17;100.00
51439;BME280;38816;51.142;-0.974;2023-02-23T08:52:37;100282.50;;;5.23;100.00
51439;BME280;38816;51.142;-0.974;2023-02-23T08:55:03;100273.91;;;5.21;100.00
51439;BME280;38816;51.142;-0.974;2023-02-23T08:57:34;100286.03;;;5.26;100.00
51439;BME280;38816;51.142;-0.974;2023-02-23T09:00:00;100281.06;;;5.29;100.00
51439;BME280;38816;51.142;-0.974;2023-02-23T09:02:26;100278.19;;;5.22;100.00
51439;BME280;38816;51.142;-0.974;2023-02-23T09:04:52;100293.44;;;5.20;100.00
51439;BME280;38816;51.142;-0.974;2023-02-23T09:07:19;100285.75;;;5.19;100.00
51439;BME280;38816;51.142;-0.974;2023-02-23T09:09:53;100283.28;;;5.22;100.00
51439;BME280;38816;51.142;-0.974;2023-02-23T09:12:18;100285.69;;;5.40;100.00
51439;BME280;38816;51.142;-0.974;2023-02-23T09:14:43;100291.19;;;5.28;100.00
51439;BME280;38816;51.142;-0.974;2023-02-23T09:17:09;100287.69;;;5.26;100.00
51439;BME280;38816;51.142;-0.974;2023-02-23T09:19:35;100293.66;;;5.26;100.00
51439;BME280;38816;51.142;-0.974;2023-02-23T09:22:00;100279.44;;;5.31;100.00
51439;BME280;38816;51.142;-0.974;2023-02-23T09:24:26;100299.75;;;5.52;100.00
51439;BME280;38816;51.142;-0.974;2023-02-23T09:26:51;100289.84;;;5.60;100.00
51439;BME280;38816;51.142;-0.974;2023-02-23T09:29:18;100301.59;;;5.79;100.00
51439;BME280;38816;51.142;-0.974;2023-02-23T09:31:43;100299.00;;;5.77;100.00
51439;BME280;38816;51.142;-0.974;2023-02-23T09:34:09;100303.50;;;5.84;100.00
51439;BME280;38816;51.142;-0.974;2023-02-23T09:36:37;100304.03;;;5.98;100.00
51439;BME280;38816;51.142;-0.974;2023-02-23T09:39:02;100302.03;;;5.91;100.00
51439;BME280;38816;51.142;-0.974;2023-02-23T09:44:32;100311.06;;;5.81;100.00
51439;BME280;38816;51.142;-0.974;2023-02-23T09:49:45;100303.56;;;5.86;100.00
51439;BME280;38816;51.142;-0.974;2023-02-23T09:52:26;100326.03;;;5.95;100.00
51439;BME280;38816;51.142;-0.974;2023-02-23T09:54:53;100318.78;;;5.84;100.00
51439;BME280;38816;51.142;-0.974;2023-02-23T09:57:35;100311.84;;;5.80;100.00
51439;BME280;38816;51.142;-0.974;2023-02-23T10:00:01;100320.47;;;5.84;100.00
51439;BME280;38816;51.142;-0.974;2023-02-23T10:05:32;100322.34;;;5.88;100.00
51439;BME280;38816;51.142;-0.974;2023-02-23T10:08:02;100314.50;;;5.83;100.00
51439;BME280;38816;51.142;-0.974;2023-02-23T10:10:39;100332.78;;;5.94;100.00
51439;BME280;38816;51.142;-0.974;2023-02-23T10:16:20;100334.75;;;6.01;100.00
51439;BME280;38816;51.142;-0.974;2023-02-23T10:19:06;100331.84;;;6.15;100.00
51439;BME280;38816;51.142;-0.974;2023-02-23T10:21:40;100325.88;;;6.14;100.00
51439;BME280;38816;51.142;-0.974;2023-02-23T10:24:39;100334.34;;;6.13;100.00
51439;BME280;38816;51.142;-0.974;2023-02-23T10:27:15;100333.16;;;6.03;100.00
51439;BME280;38816;51.142;-0.974;2023-02-23T10:29:46;100348.84;;;6.14;100.00
51439;BME280;38816;51.142;-0.974;2023-02-23T10:32:19;100349.00;;;6.19;100.00
51439;BME280;38816;51.142;-0.974;2023-02-23T10:34:48;100346.56;;;6.22;100.00
51439;BME280;38816;51.142;-0.974;2023-02-23T10:37:17;100337.91;;;6.18;100.00
51439;BME280;38816;51.142;-0.974;2023-02-23T10:39:42;100355.19;;;6.25;100.00
51439;BME280;38816;51.142;-0.974;2023-02-23T10:42:22;100353.22;;;6.42;100.00
51439;BME280;38816;51.142;-0.974;2023-02-23T10:44:52;100357.63;;;6.22;100.00
51439;BME280;38816;51.142;-0.974;2023-02-23T10:47:20;100364.44;;;6.22;100.00
51439;BME280;38816;51.142;-0.974;2023-02-23T10:49:52;100364.72;;;6.07;100.00
51439;BME280;38816;51.142;-0.974;2023-02-23T10:52:34;100358.84;;;6.08;100.00
51439;BME280;38816;51.142;-0.974;2023-02-23T10:55:04;100367.94;;;6.01;100.00
51439;BME280;38816;51.142;-0.974;2023-02-23T10:57:32;100375.91;;;6.11;100.00
51439;BME280;38816;51.142;-0.974;2023-02-23T11:02:31;100355.56;;;6.12;100.00
51439;BME280;38816;51.142;-0.974;2023-02-23T11:04:59;100368.75;;;6.24;100.00
51439;BME280;38816;51.142;-0.974;2023-02-23T11:07:29;100367.56;;;6.39;100.00
51439;BME280;38816;51.142;-0.974;2023-02-23T11:09:57;100372.56;;;6.59;100.00
51439;BME280;38816;51.142;-0.974;2023-02-23T11:12:35;100385.47;;;6.64;100.00
51439;BME280;38816;51.142;-0.974;2023-02-23T11:17:54;100378.44;;;6.82;100.00
51439;BME280;38816;51.142;-0.974;2023-02-23T11:20:35;100372.31;;;6.77;100.00
51439;BME280;38816;51.142;-0.974;2023-02-23T11:25:35;100387.16;;;6.64;100.00
51439;BME280;38816;51.142;-0.974;2023-02-23T11:28:03;100381.28;;;6.66;100.00
51439;BME280;38816;51.142;-0.974;2023-02-23T11:30:35;100372.22;;;6.50;100.00
51439;BME280;38816;51.142;-0.974;2023-02-23T11:33:03;100376.81;;;6.35;100.00
51439;BME280;38816;51.142;-0.974;2023-02-23T11:35:36;100389.41;;;6.30;100.00
51439;BME280;38816;51.142;-0.974;2023-02-23T11:38:22;100384.53;;;6.37;100.00
51439;BME280;38816;51.142;-0.974;2023-02-23T11:41:02;100385.09;;;6.29;100.00
51439;BME280;38816;51.142;-0.974;2023-02-23T11:43:29;100398.66;;;6.27;100.00
51439;BME280;38816;51.142;-0.974;2023-02-23T11:45:59;100398.06;;;6.12;100.00
51439;BME280;38816;51.142;-0.974;2023-02-23T11:48:34;100404.81;;;6.09;100.00
51439;BME280;38816;51.142;-0.974;2023-02-23T11:51:02;100392.59;;;6.01;100.00
51439;BME280;38816;51.142;-0.974;2023-02-23T11:53:36;100385.22;;;6.08;100.00
51439;BME280;38816;51.142;-0.974;2023-02-23T11:56:05;100384.78;;;6.20;100.00
51439;BME280;38816;51.142;-0.974;2023-02-23T11:58:47;100371.59;;;6.32;100.00
51439;BME280;38816;51.142;-0.974;2023-02-23T12:01:20;100391.47;;;6.41;100.00
51439;BME280;38816;51.142;-0.974;2023-02-23T12:03:52;100384.69;;;6.41;100.00
51439;BME280;38816;51.142;-0.974;2023-02-23T12:08:57;100392.63;;;6.49;100.00
51439;BME280;38816;51.142;-0.974;2023-02-23T12:11:30;100384.28;;;6.54;100.00
51439;BME280;38816;51.142;-0.974;2023-02-23T12:14:22;100388.16;;;6.67;100.00
51439;BME280;38816;51.142;-0.974;2023-02-23T12:19:44;100388.47;;;6.76;100.00
51439;BME280;38816;51.142;-0.974;2023-02-23T12:22:16;100384.06;;;6.72;100.00
51439;BME280;38816;51.142;-0.974;2023-02-23T12:35:41;100389.38;;;6.53;100.00
51439;BME280;38816;51.142;-0.974;2023-02-23T12:41:12;100384.28;;;6.54;100.00
51439;BME280;38816;51.142;-0.974;2023-02-23T12:43:49;100370.66;;;6.54;100.00
51439;BME280;38816;51.142;-0.974;2023-02-23T12:46:24;100385.59;;;6.67;100.00
51439;BME280;38816;51.142;-0.974;2023-02-23T12:49:05;100372.31;;;6.77;100.00
51439;BME280;38816;51.142;-0.974;2023-02-23T12:51:56;100378.78;;;6.93;100.00
51439;BME280;38816;51.142;-0.974;2023-02-23T12:54:24;100375.06;;;7.09;100.00
51439;BME280;38816;51.142;-0.974;2023-02-23T13:02:13;100380.56;;;7.21;100.00
51439;BME280;38816;51.142;-0.974;2023-02-23T13:05:59;100384.75;;;7.19;100.00
51439;BME280;38816;51.142;-0.974;2023-02-23T13:08:18;100384.56;;;7.13;100.00
51439;BME280;38816;51.142;-0.974;2023-02-23T13:13:36;100382.88;;;7.14;100.00
51439;BME280;38816;51.142;-0.974;2023-02-23T13:17:00;100376.78;;;7.10;100.00
51439;BME280;38816;51.142;-0.974;2023-02-23T13:19:46;100385.75;;;7.24;100.00
51439;BME280;38816;51.142;-0.974;2023-02-23T13:24:50;100382.78;;;7.38;100.00
51439;BME280;38816;51.142;-0.974;2023-02-23T13:27:35;100387.38;;;7.48;100.00
51439;BME280;38816;51.142;-0.974;2023-02-23T13:30:03;100375.50;;;7.50;100.00
51439;BME280;38816;51.142;-0.974;2023-02-23T13:32:31;100377.94;;;7.47;100.00
51439;BME280;38816;51.142;-0.974;2023-02-23T13:34:59;100381.16;;;7.40;100.00
51439;BME280;38816;51.142;-0.974;2023-02-23T13:53:57;100385.09;;;7.03;100.00
51439;BME280;38816;51.142;-0.974;2023-02-23T13:56:26;100382.31;;;6.97;100.00
51439;BME280;38816;51.142;-0.974;2023-02-23T13:59:07;100385.59;;;6.93;100.00
51439;BME280;38816;51.142;-0.974;2023-02-23T14:01:38;100382.44;;;7.00;100.00
51439;BME280;38816;51.142;-0.974;2023-02-23T14:04:06;100383.84;;;6.92;100.00
51439;BME280;38816;51.142;-0.974;2023-02-23T14:06:39;100386.72;;;7.01;100.00
51439;BME280;38816;51.142;-0.974;2023-02-23T14:09:17;100381.03;;;7.09;100.00
51439;BME280;38816;51.142;-0.974;2023-02-23T14:11:51;100397.34;;;7.13;100.00
51439;BME280;38816;51.142;-0.974;2023-02-23T14:20:11;100393.28;;;7.20;100.00
51439;BME280;38816;51.142;-0.974;2023-02-23T14:23:04;100396.00;;;7.24;100.00
51439;BME280;38816;51.142;-0.974;2023-02-23T14:28:22;100406.78;;;7.16;100.00
51439;BME280;38816;51.142;-0.974;2023-02-23T14:33:58;100402.41;;;6.86;100.00
51439;BME280;38816;51.142;-0.974;2023-02-23T14:44:27;100408.09;;;6.53;100.00
51439;BME280;38816;51.142;-0.974;2023-02-23T14:49:21;100417.72;;;6.37;100.00
51439;BME280;38816;51.142;-0.974;2023-02-23T14:51:57;100398.56;;;6.25;100.00
51439;BME280;38816;51.142;-0.974;2023-02-23T14:54:32;100399.41;;;6.24;100.00
51439;BME280;38816;51.142;-0.974;2023-02-23T14:57:00;100396.78;;;6.23;100.00
51439;BME280;38816;51.142;-0.974;2023-02-23T14:59:38;100396.88;;;6.26;100.00
51439;BME280;38816;51.142;-0.974;2023-02-23T15:02:30;100400.81;;;6.40;100.00